sensor_id;sensor_type;location;lat;lon;timestamp;P1;durP1;ratioP1;P2;durP2;ratioP2
34741;SDS011;20968;42.696;23.360;2023-07-08T00:00:18;17.70;;;9.57;;
34741;SDS011;20968;42.696;23.360;2023-07-08T00:02:44;14.57;;;10.35;;
34741;SDS011;20968;42.696;23.360;2023-07-08T00:05:11;16.95;;;10.60;;
34741;SDS011;20968;42.696;23.360;2023-07-08T00:07:38;13.93;;;10.02;;
34741;SDS011;20968;42.696;23.360;2023-07-08T00:10:15;16.05;;;10.50;;
34741;SDS011;20968;42.696;23.360;2023-07-08T00:12:46;12.30;;;9.30;;
34741;SDS011;20968;42.696;23.360;2023-07-08T00:15:14;13.18;;;9.88;;
34741;SDS011;20968;42.696;23.360;2023-07-08T00:17:41;19.67;;;12.60;;
34741;SDS011;20968;42.696;23.360;2023-07-08T00:20:11;14.60;;;9.45;;
34741;SDS011;20968;42.696;23.360;2023-07-08T00:22:39;12.73;;;10.25;;
34741;SDS011;20968;42.696;23.360;2023-07-08T00:25:06;14.85;;;10.98;;
34741;SDS011;20968;42.696;23.360;2023-07-08T00:27:34;14.60;;;11.48;;
34741;SDS011;20968;42.696;23.360;2023-07-08T00:29:59;16.27;;;11.55;;
34741;SDS011;20968;42.696;23.360;2023-07-08T00:32:28;15.57;;;10.05;;
34741;SDS011;20968;42.696;23.360;2023-07-08T00:34:53;14.52;;;11.50;;
34741;SDS011;20968;42.696;23.360;2023-07-08T00:37:21;15.27;;;11.15;;
34741;SDS011;20968;42.696;23.360;2023-07-08T00:39:47;14.98;;;11.00;;
34741;SDS011;20968;42.696;23.360;2023-07-08T00:42:16;16.75;;;10.35;;
34741;SDS011;20968;42.696;23.360;2023-07-08T00:44:43;17.88;;;10.35;;
34741;SDS011;20968;42.696;23.360;2023-07-08T00:47:10;14.80;;;10.25;;
34741;SDS011;20968;42.696;23.360;2023-07-08T00:49:43;13.40;;;10.18;;
34741;SDS011;20968;42.696;23.360;2023-07-08T00:52:17;15.85;;;9.32;;
34741;SDS011;20968;42.696;23.360;2023-07-08T00:54:48;14.68;;;9.80;;
34741;SDS011;20968;42.696;23.360;2023-07-08T00:57:15;14.18;;;9.90;;
34741;SDS011;20968;42.696;23.360;2023-07-08T00:59:46;13.35;;;10.13;;
34741;SDS011;20968;42.696;23.360;2023-07-08T01:02:18;15.48;;;9.13;;
34741;SDS011;20968;42.696;23.360;2023-07-08T01:04:57;13.90;;;9.27;;
34741;SDS011;20968;42.696;23.360;2023-07-08T01:07:27;15.30;;;10.02;;
34741;SDS011;20968;42.696;23.360;2023-07-08T01:09:57;14.63;;;9.45;;
34741;SDS011;20968;42.696;23.360;2023-07-08T01:12:29;14.77;;;8.90;;
34741;SDS011;20968;42.696;23.360;2023-07-08T01:14:59;10.02;;;8.35;;
34741;SDS011;20968;42.696;23.360;2023-07-08T01:17:28;12.00;;;8.65;;
34741;SDS011;20968;42.696;23.360;2023-07-08T01:19:57;14.35;;;9.38;;
34741;SDS011;20968;42.696;23.360;2023-07-08T01:22:31;12.52;;;9.05;;
34741;SDS011;20968;42.696;23.360;2023-07-08T01:25:01;11.38;;;8.70;;
34741;SDS011;20968;42.696;23.360;2023-07-08T01:27:29;15.75;;;8.48;;
34741;SDS011;20968;42.696;23.360;2023-07-08T01:29:59;12.82;;;9.20;;
34741;SDS011;20968;42.696;23.360;2023-07-08T01:32:26;12.07;;;8.55;;
34741;SDS011;20968;42.696;23.360;2023-07-08T01:34:52;11.38;;;7.78;;
34741;SDS011;20968;42.696;23.360;2023-07-08T01:42:46;10.45;;;8.85;;
34741;SDS011;20968;42.696;23.360;2023-07-08T01:45:12;15.98;;;8.75;;
34741;SDS011;20968;42.696;23.360;2023-07-08T01:47:41;12.38;;;8.63;;
34741;SDS011;20968;42.696;23.360;2023-07-08T01:50:09;12.13;;;8.60;;
34741;SDS011;20968;42.696;23.360;2023-07-08T01:52:36;15.93;;;9.77;;
34741;SDS011;20968;42.696;23.360;2023-07-08T01:55:02;12.55;;;8.68;;
34741;SDS011;20968;42.696;23.360;2023-07-08T01:57:28;10.65;;;8.13;;
34741;SDS011;20968;42.696;23.360;2023-07-08T01:59:54;11.63;;;8.25;;
34741;SDS011;20968;42.696;23.360;2023-07-08T02:02:19;17.08;;;9.15;;
34741;SDS011;20968;42.696;23.360;2023-07-08T02:04:45;10.30;;;8.15;;
34741;SDS011;20968;42.696;23.360;2023-07-08T02:07:10;10.25;;;7.88;;
34741;SDS011;20968;42.696;23.360;2023-07-08T02:09:35;10.10;;;8.13;;
34741;SDS011;20968;42.696;23.360;2023-07-08T02:12:01;11.65;;;8.18;;
34741;SDS011;20968;42.696;23.360;2023-07-08T02:14:26;10.75;;;7.50;;
34741;SDS011;20968;42.696;23.360;2023-07-08T02:16:51;11.90;;;7.88;;
34741;SDS011;20968;42.696;23.360;2023-07-08T02:19:18;13.30;;;10.32;;
34741;SDS011;20968;42.696;23.360;2023-07-08T02:21:44;11.23;;;8.05;;
34741;SDS011;20968;42.696;23.360;2023-07-08T02:24:10;12.98;;;9.18;;
34741;SDS011;20968;42.696;23.360;2023-07-08T02:26:35;20.10;;;9.25;;
34741;SDS011;20968;42.696;23.360;2023-07-08T02:29:01;10.80;;;8.00;;
34741;SDS011;20968;42.696;23.360;2023-07-08T02:31:26;16.02;;;10.50;;
34741;SDS011;20968;42.696;23.360;2023-07-08T02:33:52;11.45;;;8.65;;
34741;SDS011;20968;42.696;23.360;2023-07-08T02:36:19;13.52;;;8.40;;
34741;SDS011;20968;42.696;23.360;2023-07-08T02:38:44;16.15;;;8.40;;
34741;SDS011;20968;42.696;23.360;2023-07-08T02:41:10;10.55;;;7.35;;
34741;SDS011;20968;42.696;23.360;2023-07-08T02:43:36;10.23;;;7.95;;
34741;SDS011;20968;42.696;23.360;2023-07-08T02:46:02;11.23;;;7.97;;
34741;SDS011;20968;42.696;23.360;2023-07-08T02:48:28;10.88;;;7.35;;
34741;SDS011;20968;42.696;23.360;2023-07-08T02:51:00;11.15;;;6.93;;
34741;SDS011;20968;42.696;23.360;2023-07-08T02:55:53;8.43;;;6.70;;
34741;SDS011;20968;42.696;23.360;2023-07-08T02:58:18;9.23;;;6.78;;
34741;SDS011;20968;42.696;23.360;2023-07-08T03:00:44;14.40;;;8.25;;
34741;SDS011;20968;42.696;23.360;2023-07-08T03:03:09;12.38;;;8.35;;
34741;SDS011;20968;42.696;23.360;2023-07-08T03:05:35;12.00;;;7.70;;
34741;SDS011;20968;42.696;23.360;2023-07-08T03:08:01;9.70;;;7.95;;
34741;SDS011;20968;42.696;23.360;2023-07-08T03:10:26;12.88;;;8.57;;
34741;SDS011;20968;42.696;23.360;2023-07-08T03:12:52;10.18;;;7.53;;
34741;SDS011;20968;42.696;23.360;2023-07-08T03:15:17;10.73;;;7.53;;
34741;SDS011;20968;42.696;23.360;2023-07-08T03:17:43;13.18;;;8.23;;
34741;SDS011;20968;42.696;23.360;2023-07-08T03:20:09;9.38;;;7.68;;
34741;SDS011;20968;42.696;23.360;2023-07-08T03:22:35;9.20;;;7.65;;
34741;SDS011;20968;42.696;23.360;2023-07-08T03:25:01;22.73;;;8.05;;
34741;SDS011;20968;42.696;23.360;2023-07-08T03:27:27;15.45;;;7.95;;
34741;SDS011;20968;42.696;23.360;2023-07-08T03:29:53;11.60;;;8.30;;
34741;SDS011;20968;42.696;23.360;2023-07-08T03:32:18;9.65;;;7.55;;
34741;SDS011;20968;42.696;23.360;2023-07-08T03:34:44;14.57;;;8.18;;
34741;SDS011;20968;42.696;23.360;2023-07-08T03:37:09;14.52;;;7.88;;
34741;SDS011;20968;42.696;23.360;2023-07-08T03:39:35;10.95;;;7.53;;
34741;SDS011;20968;42.696;23.360;2023-07-08T03:42:00;13.43;;;7.63;;
34741;SDS011;20968;42.696;23.360;2023-07-08T03:44:26;13.80;;;7.35;;
34741;SDS011;20968;42.696;23.360;2023-07-08T03:46:52;17.30;;;7.47;;
34741;SDS011;20968;42.696;23.360;2023-07-08T03:49:18;13.18;;;9.48;;
34741;SDS011;20968;42.696;23.360;2023-07-08T03:51:49;15.63;;;7.40;;
34741;SDS011;20968;42.696;23.360;2023-07-08T03:54:17;9.65;;;7.13;;
34741;SDS011;20968;42.696;23.360;2023-07-08T03:56:43;10.35;;;7.18;;
34741;SDS011;20968;42.696;23.360;2023-07-08T03:59:09;10.52;;;6.78;;
34741;SDS011;20968;42.696;23.360;2023-07-08T04:01:35;9.13;;;6.10;;
34741;SDS011;20968;42.696;23.360;2023-07-08T04:04:00;9.88;;;6.47;;
34741;SDS011;20968;42.696;23.360;2023-07-08T04:06:26;7.38;;;5.70;;
34741;SDS011;20968;42.696;23.360;2023-07-08T04:08:53;10.30;;;6.22;;
34741;SDS011;20968;42.696;23.360;2023-07-08T04:11:20;10.52;;;6.18;;
34741;SDS011;20968;42.696;23.360;2023-07-08T04:13:47;9.38;;;6.18;;
34741;SDS011;20968;42.696;23.360;2023-07-08T04:16:17;12.50;;;6.13;;
34741;SDS011;20968;42.696;23.360;2023-07-08T04:21:12;9.43;;;5.90;;
34741;SDS011;20968;42.696;23.360;2023-07-08T04:23:37;11.73;;;6.97;;
34741;SDS011;20968;42.696;23.360;2023-07-08T04:26:03;10.85;;;6.00;;
34741;SDS011;20968;42.696;23.360;2023-07-08T04:28:28;13.73;;;6.75;;
34741;SDS011;20968;42.696;23.360;2023-07-08T04:30:54;8.70;;;6.28;;
34741;SDS011;20968;42.696;23.360;2023-07-08T04:33:19;8.25;;;6.20;;
34741;SDS011;20968;42.696;23.360;2023-07-08T04:35:45;10.43;;;5.80;;
34741;SDS011;20968;42.696;23.360;2023-07-08T04:40:43;9.02;;;6.25;;
34741;SDS011;20968;42.696;23.360;2023-07-08T04:43:09;10.23;;;7.32;;
34741;SDS011;20968;42.696;23.360;2023-07-08T04:45:40;9.57;;;6.22;;
34741;SDS011;20968;42.696;23.360;2023-07-08T04:48:12;10.38;;;6.50;;
34741;SDS011;20968;42.696;23.360;2023-07-08T04:50:40;12.57;;;7.40;;
34741;SDS011;20968;42.696;23.360;2023-07-08T04:53:06;9.60;;;6.60;;
34741;SDS011;20968;42.696;23.360;2023-07-08T04:55:32;12.50;;;7.00;;
34741;SDS011;20968;42.696;23.360;2023-07-08T04:57:58;9.82;;;7.05;;
34741;SDS011;20968;42.696;23.360;2023-07-08T05:00:23;10.80;;;7.38;;
34741;SDS011;20968;42.696;23.360;2023-07-08T05:02:49;8.50;;;6.32;;
34741;SDS011;20968;42.696;23.360;2023-07-08T05:05:14;9.98;;;7.25;;
34741;SDS011;20968;42.696;23.360;2023-07-08T05:07:40;10.50;;;6.82;;
34741;SDS011;20968;42.696;23.360;2023-07-08T05:10:05;7.85;;;6.13;;
34741;SDS011;20968;42.696;23.360;2023-07-08T05:12:31;10.32;;;7.20;;
34741;SDS011;20968;42.696;23.360;2023-07-08T05:14:56;10.73;;;6.63;;
34741;SDS011;20968;42.696;23.360;2023-07-08T05:17:22;14.63;;;6.60;;
34741;SDS011;20968;42.696;23.360;2023-07-08T05:19:47;8.85;;;6.75;;
34741;SDS011;20968;42.696;23.360;2023-07-08T05:22:16;12.10;;;7.07;;
34741;SDS011;20968;42.696;23.360;2023-07-08T05:24:43;8.73;;;6.38;;
34741;SDS011;20968;42.696;23.360;2023-07-08T05:27:08;10.25;;;7.05;;
34741;SDS011;20968;42.696;23.360;2023-07-08T05:29:34;16.98;;;6.63;;
34741;SDS011;20968;42.696;23.360;2023-07-08T05:31:59;11.02;;;7.20;;
34741;SDS011;20968;42.696;23.360;2023-07-08T05:34:24;9.52;;;6.65;;
34741;SDS011;20968;42.696;23.360;2023-07-08T05:36:50;8.85;;;6.43;;
34741;SDS011;20968;42.696;23.360;2023-07-08T05:39:15;10.40;;;6.60;;
34741;SDS011;20968;42.696;23.360;2023-07-08T05:41:41;8.93;;;6.10;;
34741;SDS011;20968;42.696;23.360;2023-07-08T05:44:06;9.07;;;5.63;;
34741;SDS011;20968;42.696;23.360;2023-07-08T05:46:31;11.68;;;6.70;;
34741;SDS011;20968;42.696;23.360;2023-07-08T05:48:58;8.10;;;6.50;;
34741;SDS011;20968;42.696;23.360;2023-07-08T05:51:23;11.70;;;6.40;;
34741;SDS011;20968;42.696;23.360;2023-07-08T05:53:49;8.15;;;6.35;;
34741;SDS011;20968;42.696;23.360;2023-07-08T05:56:14;9.13;;;6.43;;
34741;SDS011;20968;42.696;23.360;2023-07-08T05:58:39;6.43;;;5.03;;
34741;SDS011;20968;42.696;23.360;2023-07-08T06:01:05;10.50;;;6.57;;
34741;SDS011;20968;42.696;23.360;2023-07-08T06:03:32;10.95;;;7.03;;
34741;SDS011;20968;42.696;23.360;2023-07-08T06:05:57;9.85;;;6.80;;
34741;SDS011;20968;42.696;23.360;2023-07-08T06:08:22;12.43;;;7.00;;
34741;SDS011;20968;42.696;23.360;2023-07-08T06:10:49;8.90;;;6.90;;
34741;SDS011;20968;42.696;23.360;2023-07-08T06:13:15;10.60;;;6.50;;
34741;SDS011;20968;42.696;23.360;2023-07-08T06:15:41;12.75;;;7.07;;
34741;SDS011;20968;42.696;23.360;2023-07-08T06:18:07;10.50;;;6.65;;
34741;SDS011;20968;42.696;23.360;2023-07-08T06:20:33;14.98;;;7.28;;
34741;SDS011;20968;42.696;23.360;2023-07-08T06:22:58;8.00;;;6.70;;
34741;SDS011;20968;42.696;23.360;2023-07-08T06:25:24;12.20;;;6.63;;
34741;SDS011;20968;42.696;23.360;2023-07-08T06:27:50;9.30;;;6.55;;
34741;SDS011;20968;42.696;23.360;2023-07-08T06:30:15;9.30;;;7.32;;
34741;SDS011;20968;42.696;23.360;2023-07-08T06:32:41;10.02;;;6.57;;
34741;SDS011;20968;42.696;23.360;2023-07-08T06:35:06;16.92;;;6.43;;
34741;SDS011;20968;42.696;23.360;2023-07-08T06:37:32;10.63;;;5.57;;
34741;SDS011;20968;42.696;23.360;2023-07-08T06:39:58;12.98;;;5.97;;
34741;SDS011;20968;42.696;23.360;2023-07-08T06:42:23;8.45;;;6.15;;
34741;SDS011;20968;42.696;23.360;2023-07-08T06:44:49;9.98;;;4.65;;
34741;SDS011;20968;42.696;23.360;2023-07-08T06:47:20;8.30;;;4.93;;
34741;SDS011;20968;42.696;23.360;2023-07-08T06:49:46;9.82;;;5.15;;
34741;SDS011;20968;42.696;23.360;2023-07-08T06:52:12;9.55;;;5.38;;
34741;SDS011;20968;42.696;23.360;2023-07-08T06:54:38;6.43;;;4.40;;
34741;SDS011;20968;42.696;23.360;2023-07-08T06:57:04;10.65;;;4.97;;
34741;SDS011;20968;42.696;23.360;2023-07-08T06:59:29;11.30;;;4.80;;
34741;SDS011;20968;42.696;23.360;2023-07-08T07:01:55;8.57;;;4.90;;
34741;SDS011;20968;42.696;23.360;2023-07-08T07:04:20;8.38;;;4.80;;
34741;SDS011;20968;42.696;23.360;2023-07-08T07:06:46;9.80;;;4.45;;
34741;SDS011;20968;42.696;23.360;2023-07-08T07:09:11;8.18;;;4.68;;
34741;SDS011;20968;42.696;23.360;2023-07-08T07:11:36;8.23;;;4.97;;
34741;SDS011;20968;42.696;23.360;2023-07-08T07:14:02;8.38;;;5.05;;
34741;SDS011;20968;42.696;23.360;2023-07-08T07:16:27;7.28;;;5.22;;
34741;SDS011;20968;42.696;23.360;2023-07-08T07:18:53;7.90;;;5.20;;
34741;SDS011;20968;42.696;23.360;2023-07-08T07:21:18;7.75;;;4.10;;
34741;SDS011;20968;42.696;23.360;2023-07-08T07:23:44;6.93;;;5.40;;
34741;SDS011;20968;42.696;23.360;2023-07-08T07:26:09;9.00;;;4.72;;
34741;SDS011;20968;42.696;23.360;2023-07-08T07:28:35;12.38;;;5.82;;
34741;SDS011;20968;42.696;23.360;2023-07-08T07:31:00;10.32;;;6.22;;
34741;SDS011;20968;42.696;23.360;2023-07-08T07:33:26;9.65;;;5.20;;
34741;SDS011;20968;42.696;23.360;2023-07-08T07:35:52;7.70;;;5.43;;
34741;SDS011;20968;42.696;23.360;2023-07-08T07:38:17;8.80;;;5.47;;
34741;SDS011;20968;42.696;23.360;2023-07-08T07:40:43;10.00;;;5.65;;
34741;SDS011;20968;42.696;23.360;2023-07-08T07:43:09;10.68;;;6.15;;
34741;SDS011;20968;42.696;23.360;2023-07-08T07:45:35;13.57;;;6.07;;
34741;SDS011;20968;42.696;23.360;2023-07-08T07:48:00;11.50;;;5.28;;
34741;SDS011;20968;42.696;23.360;2023-07-08T07:50:26;9.63;;;4.68;;
34741;SDS011;20968;42.696;23.360;2023-07-08T07:52:52;8.55;;;5.70;;
34741;SDS011;20968;42.696;23.360;2023-07-08T07:55:18;6.78;;;5.30;;
34741;SDS011;20968;42.696;23.360;2023-07-08T07:57:43;6.93;;;5.10;;
34741;SDS011;20968;42.696;23.360;2023-07-08T08:00:11;9.90;;;4.95;;
34741;SDS011;20968;42.696;23.360;2023-07-08T08:02:39;6.75;;;4.28;;
34741;SDS011;20968;42.696;23.360;2023-07-08T08:05:05;7.28;;;5.00;;
34741;SDS011;20968;42.696;23.360;2023-07-08T08:07:30;10.18;;;5.53;;
34741;SDS011;20968;42.696;23.360;2023-07-08T08:09:55;8.15;;;4.43;;
34741;SDS011;20968;42.696;23.360;2023-07-08T08:12:21;9.63;;;5.18;;
34741;SDS011;20968;42.696;23.360;2023-07-08T08:14:49;7.90;;;4.82;;
34741;SDS011;20968;42.696;23.360;2023-07-08T08:17:15;10.15;;;5.93;;
34741;SDS011;20968;42.696;23.360;2023-07-08T08:19:40;11.02;;;5.18;;
34741;SDS011;20968;42.696;23.360;2023-07-08T08:22:06;10.70;;;4.60;;
34741;SDS011;20968;42.696;23.360;2023-07-08T08:24:31;8.82;;;5.40;;
34741;SDS011;20968;42.696;23.360;2023-07-08T08:26:58;6.50;;;5.45;;
34741;SDS011;20968;42.696;23.360;2023-07-08T08:29:23;9.18;;;5.20;;
34741;SDS011;20968;42.696;23.360;2023-07-08T08:31:49;12.68;;;5.47;;
34741;SDS011;20968;42.696;23.360;2023-07-08T08:34:15;8.52;;;4.70;;
34741;SDS011;20968;42.696;23.360;2023-07-08T08:36:41;7.95;;;5.07;;
34741;SDS011;20968;42.696;23.360;2023-07-08T08:39:07;14.25;;;4.82;;
34741;SDS011;20968;42.696;23.360;2023-07-08T08:41:34;6.32;;;4.70;;
34741;SDS011;20968;42.696;23.360;2023-07-08T08:44:02;8.18;;;5.00;;
34741;SDS011;20968;42.696;23.360;2023-07-08T08:46:38;6.68;;;5.03;;
34741;SDS011;20968;42.696;23.360;2023-07-08T08:51:51;7.05;;;5.18;;
34741;SDS011;20968;42.696;23.360;2023-07-08T08:54:17;6.63;;;4.95;;
34741;SDS011;20968;42.696;23.360;2023-07-08T09:04:58;9.02;;;4.88;;
34741;SDS011;20968;42.696;23.360;2023-07-08T09:07:28;8.40;;;4.32;;
34741;SDS011;20968;42.696;23.360;2023-07-08T09:10:04;6.43;;;4.10;;
34741;SDS011;20968;42.696;23.360;2023-07-08T09:12:40;11.65;;;4.47;;
34741;SDS011;20968;42.696;23.360;2023-07-08T09:15:13;11.70;;;4.70;;
34741;SDS011;20968;42.696;23.360;2023-07-08T09:17:39;6.47;;;4.72;;
34741;SDS011;20968;42.696;23.360;2023-07-08T09:20:25;5.55;;;3.97;;
34741;SDS011;20968;42.696;23.360;2023-07-08T09:25:34;6.70;;;4.95;;
34741;SDS011;20968;42.696;23.360;2023-07-08T09:28:02;4.55;;;3.83;;
34741;SDS011;20968;42.696;23.360;2023-07-08T09:30:28;8.27;;;4.40;;
34741;SDS011;20968;42.696;23.360;2023-07-08T09:32:56;10.85;;;4.97;;
34741;SDS011;20968;42.696;23.360;2023-07-08T09:35:28;8.15;;;4.13;;
34741;SDS011;20968;42.696;23.360;2023-07-08T09:38:06;6.43;;;4.13;;
34741;SDS011;20968;42.696;23.360;2023-07-08T09:40:33;11.63;;;6.53;;
34741;SDS011;20968;42.696;23.360;2023-07-08T09:43:03;4.72;;;4.20;;
34741;SDS011;20968;42.696;23.360;2023-07-08T09:45:42;8.88;;;4.10;;
34741;SDS011;20968;42.696;23.360;2023-07-08T09:48:55;7.40;;;4.05;;
34741;SDS011;20968;42.696;23.360;2023-07-08T09:51:00;8.38;;;5.47;;
34741;SDS011;20968;42.696;23.360;2023-07-08T09:53:26;8.27;;;4.03;;
34741;SDS011;20968;42.696;23.360;2023-07-08T09:55:53;7.00;;;3.78;;
34741;SDS011;20968;42.696;23.360;2023-07-08T09:58:25;7.35;;;4.05;;
34741;SDS011;20968;42.696;23.360;2023-07-08T10:00:59;10.40;;;3.63;;
34741;SDS011;20968;42.696;23.360;2023-07-08T10:03:35;6.07;;;3.95;;
34741;SDS011;20968;42.696;23.360;2023-07-08T10:06:17;9.40;;;3.72;;
34741;SDS011;20968;42.696;23.360;2023-07-08T10:08:46;4.93;;;3.80;;
34741;SDS011;20968;42.696;23.360;2023-07-08T10:11:29;6.15;;;4.00;;
34741;SDS011;20968;42.696;23.360;2023-07-08T10:14:11;5.78;;;4.15;;
34741;SDS011;20968;42.696;23.360;2023-07-08T10:16:48;7.82;;;4.45;;
34741;SDS011;20968;42.696;23.360;2023-07-08T10:19:14;5.95;;;3.90;;
34741;SDS011;20968;42.696;23.360;2023-07-08T10:27:20;4.55;;;3.63;;
34741;SDS011;20968;42.696;23.360;2023-07-08T10:29:54;6.80;;;3.60;;
34741;SDS011;20968;42.696;23.360;2023-07-08T10:35:16;5.72;;;4.20;;
34741;SDS011;20968;42.696;23.360;2023-07-08T10:40:31;6.00;;;3.33;;
34741;SDS011;20968;42.696;23.360;2023-07-08T10:43:14;5.25;;;3.25;;
34741;SDS011;20968;42.696;23.360;2023-07-08T10:54:18;3.30;;;3.00;;
34741;SDS011;20968;42.696;23.360;2023-07-08T10:56:54;8.52;;;3.63;;
34741;SDS011;20968;42.696;23.360;2023-07-08T11:08:20;4.93;;;3.67;;
34741;SDS011;20968;42.696;23.360;2023-07-08T11:11:06;2.60;;;2.40;;
34741;SDS011;20968;42.696;23.360;2023-07-08T11:13:38;4.10;;;3.45;;
34741;SDS011;20968;42.696;23.360;2023-07-08T11:16:13;4.63;;;3.78;;
34741;SDS011;20968;42.696;23.360;2023-07-08T11:21:50;2.83;;;2.60;;
34741;SDS011;20968;42.696;23.360;2023-07-08T11:27:27;3.05;;;2.63;;
34741;SDS011;20968;42.696;23.360;2023-07-08T11:30:02;5.50;;;3.30;;
34741;SDS011;20968;42.696;23.360;2023-07-08T11:32:29;5.45;;;3.38;;
34741;SDS011;20968;42.696;23.360;2023-07-08T11:34:58;3.13;;;2.83;;
34741;SDS011;20968;42.696;23.360;2023-07-08T11:37:25;9.07;;;3.22;;
34741;SDS011;20968;42.696;23.360;2023-07-08T11:39:58;6.10;;;3.10;;
34741;SDS011;20968;42.696;23.360;2023-07-08T11:42:44;6.30;;;3.17;;
34741;SDS011;20968;42.696;23.360;2023-07-08T11:50:44;5.95;;;3.63;;
34741;SDS011;20968;42.696;23.360;2023-07-08T11:56:02;5.25;;;3.03;;
34741;SDS011;20968;42.696;23.360;2023-07-08T11:58:30;7.15;;;3.28;;
34741;SDS011;20968;42.696;23.360;2023-07-08T12:00:58;5.55;;;3.15;;
34741;SDS011;20968;42.696;23.360;2023-07-08T12:03:28;6.68;;;3.22;;
34741;SDS011;20968;42.696;23.360;2023-07-08T12:06:00;2.72;;;2.40;;
34741;SDS011;20968;42.696;23.360;2023-07-08T12:08:35;7.03;;;2.92;;
34741;SDS011;20968;42.696;23.360;2023-07-08T12:11:08;6.72;;;3.00;;
34741;SDS011;20968;42.696;23.360;2023-07-08T12:13:37;7.28;;;3.20;;
34741;SDS011;20968;42.696;23.360;2023-07-08T12:16:07;6.50;;;3.28;;
34741;SDS011;20968;42.696;23.360;2023-07-08T12:18:36;6.35;;;2.58;;
34741;SDS011;20968;42.696;23.360;2023-07-08T12:21:11;9.95;;;2.95;;
34741;SDS011;20968;42.696;23.360;2023-07-08T12:23:37;4.57;;;2.88;;
34741;SDS011;20968;42.696;23.360;2023-07-08T12:26:08;3.08;;;2.78;;
34741;SDS011;20968;42.696;23.360;2023-07-08T12:28:36;4.00;;;2.90;;
34741;SDS011;20968;42.696;23.360;2023-07-08T12:31:02;5.72;;;2.47;;
34741;SDS011;20968;42.696;23.360;2023-07-08T12:33:28;5.15;;;2.78;;
34741;SDS011;20968;42.696;23.360;2023-07-08T12:35:57;5.40;;;2.60;;
34741;SDS011;20968;42.696;23.360;2023-07-08T12:38:30;7.03;;;3.17;;
34741;SDS011;20968;42.696;23.360;2023-07-08T12:41:00;4.63;;;2.47;;
34741;SDS011;20968;42.696;23.360;2023-07-08T12:43:27;5.40;;;2.53;;
34741;SDS011;20968;42.696;23.360;2023-07-08T12:45:52;5.53;;;2.85;;
34741;SDS011;20968;42.696;23.360;2023-07-08T12:48:17;4.38;;;2.15;;
34741;SDS011;20968;42.696;23.360;2023-07-08T12:50:43;5.05;;;2.30;;
34741;SDS011;20968;42.696;23.360;2023-07-08T12:53:12;4.40;;;3.00;;
34741;SDS011;20968;42.696;23.360;2023-07-08T12:55:38;6.43;;;2.55;;
34741;SDS011;20968;42.696;23.360;2023-07-08T12:58:09;2.28;;;2.08;;
34741;SDS011;20968;42.696;23.360;2023-07-08T13:00:39;3.55;;;2.50;;
34741;SDS011;20968;42.696;23.360;2023-07-08T13:03:08;6.13;;;2.45;;
34741;SDS011;20968;42.696;23.360;2023-07-08T13:05:41;4.90;;;2.42;;
34741;SDS011;20968;42.696;23.360;2023-07-08T13:08:11;2.58;;;2.33;;
34741;SDS011;20968;42.696;23.360;2023-07-08T13:10:38;3.63;;;2.40;;
34741;SDS011;20968;42.696;23.360;2023-07-08T13:13:06;6.22;;;2.20;;
34741;SDS011;20968;42.696;23.360;2023-07-08T13:15:38;5.63;;;2.40;;
34741;SDS011;20968;42.696;23.360;2023-07-08T13:18:14;8.45;;;2.22;;
34741;SDS011;20968;42.696;23.360;2023-07-08T13:20:39;2.67;;;1.98;;
34741;SDS011;20968;42.696;23.360;2023-07-08T13:23:07;7.00;;;2.40;;
34741;SDS011;20968;42.696;23.360;2023-07-08T13:25:36;4.28;;;1.85;;
34741;SDS011;20968;42.696;23.360;2023-07-08T13:28:13;5.60;;;2.35;;
34741;SDS011;20968;42.696;23.360;2023-07-08T13:30:57;4.25;;;2.38;;
34741;SDS011;20968;42.696;23.360;2023-07-08T13:33:32;2.25;;;1.92;;
34741;SDS011;20968;42.696;23.360;2023-07-08T13:36:01;9.48;;;2.08;;
34741;SDS011;20968;42.696;23.360;2023-07-08T13:38:31;2.80;;;2.10;;
34741;SDS011;20968;42.696;23.360;2023-07-08T13:41:00;4.25;;;2.85;;
34741;SDS011;20968;42.696;23.360;2023-07-08T13:43:30;3.90;;;2.50;;
34741;SDS011;20968;42.696;23.360;2023-07-08T13:45:57;4.82;;;2.65;;
34741;SDS011;20968;42.696;23.360;2023-07-08T13:48:42;2.75;;;1.90;;
34741;SDS011;20968;42.696;23.360;2023-07-08T13:51:10;2.83;;;2.13;;
34741;SDS011;20968;42.696;23.360;2023-07-08T13:53:46;3.50;;;2.22;;
34741;SDS011;20968;42.696;23.360;2023-07-08T13:56:20;4.47;;;2.53;;
34741;SDS011;20968;42.696;23.360;2023-07-08T13:58:47;2.90;;;2.00;;
34741;SDS011;20968;42.696;23.360;2023-07-08T14:01:19;2.63;;;1.95;;
34741;SDS011;20968;42.696;23.360;2023-07-08T14:03:47;3.45;;;1.90;;
34741;SDS011;20968;42.696;23.360;2023-07-08T14:06:17;4.55;;;2.30;;
34741;SDS011;20968;42.696;23.360;2023-07-08T14:08:45;8.00;;;2.70;;
34741;SDS011;20968;42.696;23.360;2023-07-08T14:11:10;4.05;;;2.15;;
34741;SDS011;20968;42.696;23.360;2023-07-08T14:13:36;2.75;;;2.22;;
34741;SDS011;20968;42.696;23.360;2023-07-08T14:16:01;3.00;;;2.25;;
34741;SDS011;20968;42.696;23.360;2023-07-08T14:18:30;5.32;;;2.38;;
34741;SDS011;20968;42.696;23.360;2023-07-08T14:20:56;1.92;;;1.70;;
34741;SDS011;20968;42.696;23.360;2023-07-08T14:23:23;2.53;;;1.90;;
34741;SDS011;20968;42.696;23.360;2023-07-08T14:25:48;2.15;;;1.77;;
34741;SDS011;20968;42.696;23.360;2023-07-08T14:28:14;2.65;;;2.03;;
34741;SDS011;20968;42.696;23.360;2023-07-08T14:30:41;3.75;;;1.90;;
34741;SDS011;20968;42.696;23.360;2023-07-08T14:33:10;3.97;;;1.70;;
34741;SDS011;20968;42.696;23.360;2023-07-08T14:35:36;2.15;;;1.75;;
34741;SDS011;20968;42.696;23.360;2023-07-08T14:38:02;3.72;;;1.75;;
34741;SDS011;20968;42.696;23.360;2023-07-08T14:40:35;2.63;;;1.92;;
34741;SDS011;20968;42.696;23.360;2023-07-08T14:45:29;4.55;;;1.98;;
34741;SDS011;20968;42.696;23.360;2023-07-08T14:47:56;3.65;;;2.28;;
34741;SDS011;20968;42.696;23.360;2023-07-08T14:50:22;3.75;;;2.38;;
34741;SDS011;20968;42.696;23.360;2023-07-08T14:52:50;3.22;;;2.08;;
34741;SDS011;20968;42.696;23.360;2023-07-08T14:55:15;3.97;;;2.40;;
34741;SDS011;20968;42.696;23.360;2023-07-08T14:57:45;7.70;;;2.45;;
34741;SDS011;20968;42.696;23.360;2023-07-08T15:00:15;2.60;;;1.98;;
34741;SDS011;20968;42.696;23.360;2023-07-08T15:02:43;3.42;;;2.25;;
34741;SDS011;20968;42.696;23.360;2023-07-08T15:05:18;3.78;;;2.03;;
34741;SDS011;20968;42.696;23.360;2023-07-08T15:07:51;3.10;;;2.72;;
34741;SDS011;20968;42.696;23.360;2023-07-08T15:10:19;2.13;;;1.92;;
34741;SDS011;20968;42.696;23.360;2023-07-08T15:12:46;3.30;;;2.17;;
34741;SDS011;20968;42.696;23.360;2023-07-08T15:17:43;2.25;;;1.80;;
34741;SDS011;20968;42.696;23.360;2023-07-08T15:20:11;4.28;;;2.05;;
34741;SDS011;20968;42.696;23.360;2023-07-08T15:22:38;5.93;;;2.72;;
34741;SDS011;20968;42.696;23.360;2023-07-08T15:25:04;3.65;;;2.55;;
34741;SDS011;20968;42.696;23.360;2023-07-08T15:27:31;2.75;;;1.75;;
34741;SDS011;20968;42.696;23.360;2023-07-08T15:29:56;2.78;;;1.83;;
34741;SDS011;20968;42.696;23.360;2023-07-08T15:32:21;3.40;;;1.95;;
34741;SDS011;20968;42.696;23.360;2023-07-08T15:34:47;3.08;;;2.00;;
34741;SDS011;20968;42.696;23.360;2023-07-08T15:37:12;4.68;;;2.92;;
34741;SDS011;20968;42.696;23.360;2023-07-08T15:39:38;2.65;;;2.22;;
34741;SDS011;20968;42.696;23.360;2023-07-08T15:42:03;5.45;;;2.35;;
34741;SDS011;20968;42.696;23.360;2023-07-08T15:44:29;3.75;;;2.33;;
34741;SDS011;20968;42.696;23.360;2023-07-08T15:46:54;3.65;;;2.70;;